createdAt,value
2023-05-20T00:02:29.265Z,94997.50
2023-05-20T00:04:57.535Z,94997.50
2023-05-20T00:07:26.202Z,94999.22
2023-05-20T00:09:54.317Z,94994.22
2023-05-20T00:12:22.301Z,94994.78
2023-05-20T00:14:50.271Z,94991.66
2023-05-20T00:17:18.420Z,94989.06
2023-05-20T00:19:47.733Z,94984.44
2023-05-20T00:22:15.676Z,94992.56
2023-05-20T00:24:43.658Z,94983.34
2023-05-20T00:27:11.612Z,94983.34
2023-05-20T00:29:39.584Z,94976.44
2023-05-20T00:32:08.338Z,94976.97
2023-05-20T00:34:36.363Z,94971.34
2023-05-20T00:37:06.205Z,94970.28
2023-05-20T00:39:34.184Z,94963.47
2023-05-20T00:42:03.592Z,94966.03
2023-05-20T00:44:31.537Z,94964.09
2023-05-20T00:46:59.795Z,94965.69
2023-05-20T00:49:27.887Z,94960.16
2023-05-20T00:51:56.397Z,94956.50
2023-05-20T00:54:25.751Z,94961.72
2023-05-20T00:56:54.220Z,94955.94
2023-05-20T00:59:22.173Z,94954.78
2023-05-20T01:01:50.854Z,94955.91
2023-05-20T01:04:19.056Z,94956.09
2023-05-20T01:06:47.924Z,94965.16
2023-05-20T01:09:16.042Z,94960.06
2023-05-20T01:11:53.005Z,94960.13
2023-05-20T01:14:25.218Z,94957.66
2023-05-20T01:16:58.450Z,94959.88
2023-05-20T01:19:36.544Z,94956.75
2023-05-20T01:22:08.048Z,94966.00
2023-05-20T01:24:37.611Z,94956.66
2023-05-20T01:27:10.336Z,94953.72
2023-05-20T01:29:38.751Z,94947.38
2023-05-20T01:32:10.003Z,94945.31
2023-05-20T01:34:40.093Z,94943.25
2023-05-20T01:37:09.426Z,94945.97
2023-05-20T01:39:41.993Z,94953.88
2023-05-20T01:42:11.546Z,94949.13
2023-05-20T01:44:39.665Z,94945.97
2023-05-20T01:47:08.596Z,94950.88
2023-05-20T01:49:36.559Z,94957.03
2023-05-20T01:52:05.148Z,94956.72
2023-05-20T01:54:33.115Z,94953.88
2023-05-20T01:57:03.079Z,94946.25
2023-05-20T01:59:31.134Z,94950.69
2023-05-20T02:01:59.148Z,94946.41
2023-05-20T02:04:27.341Z,94931.47
2023-05-20T02:06:55.848Z,94945.09
2023-05-20T02:09:24.673Z,94932.97
2023-05-20T02:11:53.750Z,94935.59
2023-05-20T02:14:23.140Z,94941.44
2023-05-20T02:16:51.183Z,94936.88
2023-05-20T02:19:23.810Z,94933.06
2023-05-20T02:21:52.130Z,94937.34
2023-05-20T02:24:21.265Z,94944.81
2023-05-20T02:26:51.257Z,94942.59
2023-05-20T02:29:20.107Z,94937.19
2023-05-20T02:31:49.704Z,94942.00
2023-05-20T02:34:18.817Z,94940.41
2023-05-20T02:36:46.787Z,94930.72
2023-05-20T02:39:15.627Z,94922.59
2023-05-20T02:41:43.600Z,94922.03
2023-05-20T02:44:11.605Z,94919.03
2023-05-20T02:46:39.617Z,94920.38
2023-05-20T02:49:08.971Z,94923.56
2023-05-20T02:51:37.613Z,94918.78
2023-05-20T02:54:05.690Z,94924.19
2023-05-20T02:56:34.370Z,94928.47
2023-05-20T02:59:03.719Z,94925.06
2023-05-20T03:01:33.869Z,94925.59
2023-05-20T03:04:02.115Z,94907.34
2023-05-20T03:06:31.919Z,94912.25
2023-05-20T03:08:59.986Z,94900.69
2023-05-20T03:11:27.950Z,94901.59
2023-05-20T03:13:55.887Z,94908.88
2023-05-20T03:16:25.267Z,94908.41
2023-05-20T03:18:54.625Z,94905.00
2023-05-20T03:21:24.281Z,94912.06
2023-05-20T03:23:53.781Z,94915.09
2023-05-20T03:26:23.501Z,94908.41
2023-05-20T03:28:52.020Z,94918.22
2023-05-20T03:31:20.408Z,94914.09
2023-05-20T03:33:48.498Z,94918.66
2023-05-20T03:36:16.539Z,94910.06
2023-05-20T03:38:44.503Z,94904.47
2023-05-20T03:41:13.878Z,94898.91
2023-05-20T03:43:42.068Z,94896.97
2023-05-20T03:46:09.998Z,94896.72
2023-05-20T03:48:38.020Z,94893.66
2023-05-20T03:51:06.051Z,94894.97
2023-05-20T03:53:34.652Z,94900.38
2023-05-20T03:56:02.980Z,94887.84
2023-05-20T03:58:33.230Z,94894.09
2023-05-20T04:01:01.186Z,94902.75
2023-05-20T04:03:30.216Z,94908.31
2023-05-20T04:05:58.407Z,94908.63
2023-05-20T04:08:26.944Z,94912.06
2023-05-20T04:10:57.403Z,94901.03
2023-05-20T04:13:26.470Z,94905.13
2023-05-20T04:15:56.016Z,94899.56
2023-05-20T04:18:24.243Z,94907.66
2023-05-20T04:20:56.919Z,94897.19
2023-05-20T04:23:25.409Z,94897.75
2023-05-20T04:25:55.212Z,94896.88
2023-05-20T04:28:28.178Z,94894.97
2023-05-20T04:31:02.821Z,94897.50
2023-05-20T04:33:33.038Z,94901.16
2023-05-20T04:36:03.167Z,94903.44
2023-05-20T04:38:32.430Z,94894.69
2023-05-20T04:41:02.177Z,94895.25
2023-05-20T04:43:31.304Z,94904.78
2023-05-20T04:46:01.452Z,94913.19
2023-05-20T04:48:29.427Z,94904.44
2023-05-20T04:50:58.024Z,94898.78
2023-05-20T04:53:26.364Z,94899.34
2023-05-20T04:55:56.990Z,94905.22
2023-05-20T04:58:25.535Z,94900.69
2023-05-20T05:00:54.379Z,94900.38
2023-05-20T05:03:23.790Z,94900.47
2023-05-20T05:05:51.769Z,94902.13
2023-05-20T05:08:20.156Z,94887.56
2023-05-20T05:10:51.943Z,94882.94
2023-05-20T05:13:20.008Z,94884.09
2023-05-20T05:15:49.614Z,94890.25
2023-05-20T05:18:19.447Z,94884.50
2023-05-20T05:20:48.777Z,94886.38
2023-05-20T05:23:16.706Z,94880.34
2023-05-20T05:25:44.722Z,94880.69
2023-05-20T05:28:13.018Z,94889.75
2023-05-20T05:30:40.964Z,94887.84
2023-05-20T05:33:08.904Z,94885.97
2023-05-20T05:35:36.881Z,94877.56
2023-05-20T05:38:06.197Z,94878.59
2023-05-20T05:40:37.319Z,94878.50
2023-05-20T05:43:05.516Z,94870.13
2023-05-20T05:45:34.649Z,94873.03
2023-05-20T05:48:02.855Z,94864.84
2023-05-20T05:50:31.391Z,94858.84
2023-05-20T05:52:59.327Z,94859.47
2023-05-20T05:55:28.904Z,94854.88
2023-05-20T05:57:56.903Z,94867.56
2023-05-20T06:00:24.965Z,94864.06
2023-05-20T06:02:53.226Z,94856.47
2023-05-20T06:05:32.667Z,94859.31
2023-05-20T06:08:00.900Z,94855.19
2023-05-20T06:10:30.316Z,94851.47
2023-05-20T06:12:58.308Z,94843.06
2023-05-20T06:15:27.324Z,94853.28
2023-05-20T06:17:55.928Z,94846.78
2023-05-20T06:20:24.201Z,94851.19
2023-05-20T06:22:52.377Z,94841.00
2023-05-20T06:25:23.158Z,94842.09
2023-05-20T06:27:53.196Z,94848.00
2023-05-20T06:30:22.692Z,94849.22
2023-05-20T06:32:50.920Z,94846.16
2023-05-20T06:35:19.168Z,94834.47
2023-05-20T06:37:47.222Z,94837.66
2023-05-20T06:40:15.415Z,94835.88
2023-05-20T06:42:44.266Z,94833.03
2023-05-20T06:45:14.095Z,94842.22
2023-05-20T06:47:44.595Z,94834.50
2023-05-20T06:50:13.180Z,94832.25
2023-05-20T06:52:41.353Z,94838.28
2023-05-20T06:55:10.934Z,94843.53
2023-05-20T06:57:38.945Z,94844.16
2023-05-20T07:00:08.325Z,94835.78
2023-05-20T07:02:43.177Z,94835.06
2023-05-20T07:05:13.757Z,94839.47
2023-05-20T07:07:41.694Z,94841.47
2023-05-20T07:10:10.782Z,94837.78
2023-05-20T07:12:38.843Z,94834.41
2023-05-20T07:15:07.781Z,94834.31
2023-05-20T07:17:36.444Z,94838.06
2023-05-20T07:20:08.240Z,94839.63
2023-05-20T07:22:37.143Z,94838.88
2023-05-20T07:25:15.894Z,94832.13
2023-05-20T07:27:44.004Z,94844.97
2023-05-20T07:30:12.253Z,94836.59
2023-05-20T07:32:42.361Z,94829.81
2023-05-20T07:35:11.868Z,94817.22
2023-05-20T07:37:39.820Z,94822.47
2023-05-20T07:40:09.766Z,94816.72
2023-05-20T07:42:39.746Z,94813.53
2023-05-20T07:45:08.877Z,94815.63
2023-05-20T07:47:37.059Z,94819.31
2023-05-20T07:50:05.340Z,94809.09
2023-05-20T07:52:51.808Z,94810.38
2023-05-20T07:55:24.748Z,94806.81
2023-05-20T07:57:53.251Z,94812.13
2023-05-20T08:00:22.644Z,94800.13
2023-05-20T08:02:50.836Z,94807.75
2023-05-20T08:05:25.750Z,94801.69
2023-05-20T08:07:55.196Z,94801.41
2023-05-20T08:10:26.025Z,94799.09
2023-05-20T08:12:55.145Z,94792.53
2023-05-20T08:15:23.157Z,94803.22
2023-05-20T08:17:51.344Z,94803.28
2023-05-20T08:20:19.472Z,94802.78
2023-05-20T08:22:47.465Z,94797.78
2023-05-20T08:25:16.888Z,94794.75
2023-05-20T08:27:45.830Z,94803.00
2023-05-20T08:30:14.297Z,94795.97
2023-05-20T08:32:42.818Z,94801.50
2023-05-20T08:35:12.990Z,94799.91
2023-05-20T08:37:41.048Z,94796.72
2023-05-20T08:40:11.877Z,94799.91
2023-05-20T08:42:44.217Z,94799.94
2023-05-20T08:45:14.273Z,94798.59
2023-05-20T08:47:44.275Z,94798.31
2023-05-20T08:50:13.757Z,94796.22
2023-05-20T08:52:44.597Z,94788.66
2023-05-20T08:55:17.510Z,94791.63
2023-05-20T08:57:47.241Z,94787.94
2023-05-20T09:00:17.179Z,94781.09
2023-05-20T09:02:46.921Z,94794.25
2023-05-20T09:05:15.117Z,94792.09
2023-05-20T09:07:43.799Z,94785.81
2023-05-20T09:10:12.083Z,94785.84
2023-05-20T09:12:40.090Z,94790.56
2023-05-20T09:15:10.818Z,94778.13
2023-05-20T09:17:39.655Z,94789.44
2023-05-20T09:20:09.888Z,94787.94
2023-05-20T09:22:39.800Z,94788.72
2023-05-20T09:25:09.531Z,94794.25
2023-05-20T09:27:37.443Z,94790.56
2023-05-20T09:30:12.731Z,94792.69
2023-05-20T09:32:41.204Z,94803.75
2023-05-20T09:35:09.809Z,94801.63
2023-05-20T09:37:38.693Z,94787.94
2023-05-20T09:40:10.274Z,94792.16
2023-05-20T09:42:43.442Z,94787.41
2023-05-20T09:45:13.399Z,94785.78
2023-05-20T09:47:42.680Z,94788.41
2023-05-20T09:50:11.054Z,94782.09
2023-05-20T09:52:39.966Z,94782.63
2023-05-20T09:55:10.487Z,94778.13
2023-05-20T09:57:39.204Z,94782.56
2023-05-20T10:00:10.298Z,94780.91
2023-05-20T10:02:43.857Z,94784.00
2023-05-20T10:05:16.713Z,94784.69
2023-05-20T10:08:15.822Z,94769.97
2023-05-20T10:10:49.526Z,94775.16
2023-05-20T10:13:33.420Z,94771.16
2023-05-20T10:16:11.339Z,94760.50
2023-05-20T10:18:53.062Z,94764.97
2023-05-20T10:21:24.592Z,94775.69
2023-05-20T10:23:53.295Z,94765.97
2023-05-20T10:26:21.895Z,94768.13
2023-05-20T10:28:50.287Z,94756.66
2023-05-20T10:31:19.688Z,94762.94
2023-05-20T10:33:49.780Z,94749.88
2023-05-20T10:36:26.314Z,94748.94
2023-05-20T10:38:55.998Z,94743.44
2023-05-20T10:41:26.563Z,94741.50
2023-05-20T10:44:03.133Z,94744.34
2023-05-20T10:46:40.150Z,94751.97
2023-05-20T10:49:24.006Z,94745.13
2023-05-20T10:51:55.621Z,94758.31
2023-05-20T10:54:24.176Z,94753.09
2023-05-20T10:56:53.623Z,94747.75
2023-05-20T10:59:22.776Z,94746.63
2023-05-20T11:01:51.632Z,94740.91
2023-05-20T11:04:20.954Z,94747.69
2023-05-20T11:06:54.211Z,94741.81
2023-05-20T11:09:22.730Z,94733.84
2023-05-20T11:11:51.500Z,94730.84
2023-05-20T11:14:20.283Z,94732.94
2023-05-20T11:16:57.954Z,94732.25
2023-05-20T11:19:26.677Z,94731.75
2023-05-20T11:21:55.114Z,94720.59
2023-05-20T11:24:29.192Z,94722.78
2023-05-20T11:26:57.661Z,94716.06
2023-05-20T11:29:29.130Z,94711.63
2023-05-20T11:31:58.798Z,94703.53
2023-05-20T11:34:28.211Z,94705.44
2023-05-20T11:36:58.501Z,94707.03
2023-05-20T11:39:30.298Z,94706.84
2023-05-20T11:41:58.943Z,94708.47
2023-05-20T11:44:27.166Z,94704.09
2023-05-20T11:47:02.649Z,94704.09
2023-05-20T11:49:31.181Z,94709.34
2023-05-20T11:51:59.293Z,94711.97
2023-05-20T11:54:27.491Z,94711.63
2023-05-20T11:56:56.507Z,94714.00
2023-05-20T11:59:25.922Z,94705.34
2023-05-20T12:01:53.998Z,94691.22
2023-05-20T12:04:23.553Z,94692.66
2023-05-20T12:06:53.202Z,94693.00
2023-05-20T12:09:21.249Z,94701.94
2023-05-20T12:11:49.361Z,94691.72
2023-05-20T12:14:17.290Z,94696.25
2023-05-20T12:16:45.290Z,94703.00
2023-05-20T12:19:13.300Z,94701.53
2023-05-20T12:21:42.738Z,94698.97
2023-05-20T12:24:11.150Z,94698.84
2023-05-20T12:26:39.126Z,94693.44
2023-05-20T12:29:07.259Z,94699.28
2023-05-20T12:31:35.385Z,94701.97
2023-05-20T12:34:03.670Z,94707.47
2023-05-20T12:36:31.742Z,94702.69
2023-05-20T12:39:01.107Z,94712.50
2023-05-20T12:41:29.044Z,94702.59
2023-05-20T12:43:56.998Z,94702.94
2023-05-20T12:46:25.118Z,94703.50
2023-05-20T12:48:53.259Z,94704.06
2023-05-20T12:51:21.236Z,94711.22
2023-05-20T12:53:49.364Z,94711.56
2023-05-20T12:56:19.366Z,94706.50
2023-05-20T12:58:47.360Z,94713.50
2023-05-20T13:01:15.396Z,94702.59
2023-05-20T13:03:43.413Z,94711.19
2023-05-20T13:06:11.487Z,94702.59
2023-05-20T13:08:39.451Z,94705.31
2023-05-20T13:11:07.361Z,94709.63
2023-05-20T13:13:36.666Z,94705.22
2023-05-20T13:16:05.015Z,94700.09
2023-05-20T13:18:32.912Z,94704.25
2023-05-20T13:21:00.872Z,94694.38
2023-05-20T13:23:28.801Z,94693.59
2023-05-20T13:25:56.816Z,94694.75
2023-05-20T13:28:24.749Z,94703.91
2023-05-20T13:30:54.126Z,94706.31
2023-05-20T13:33:24.090Z,94711.91
2023-05-20T13:35:52.188Z,94709.94
2023-05-20T13:38:20.141Z,94710.34
2023-05-20T13:40:49.010Z,94706.22
2023-05-20T13:43:17.020Z,94707.22
2023-05-20T13:45:45.271Z,94700.91
2023-05-20T13:48:14.600Z,94695.03
2023-05-20T13:50:42.629Z,94693.59
2023-05-20T13:53:12.524Z,94697.47
2023-05-20T13:55:40.830Z,94693.75
2023-05-20T13:58:10.041Z,94684.00
2023-05-20T14:00:38.796Z,94677.56
2023-05-20T14:03:09.118Z,94686.88
2023-05-20T14:05:38.744Z,94697.47
2023-05-20T14:08:06.800Z,94695.88
2023-05-20T14:10:34.902Z,94688.66
2023-05-20T14:13:03.110Z,94691.06
2023-05-20T14:15:31.511Z,94691.84
2023-05-20T14:17:59.545Z,94692.78
2023-05-20T14:20:27.510Z,94687.88
2023-05-20T14:22:56.832Z,94689.59
2023-05-20T14:25:24.777Z,94683.28
2023-05-20T14:27:52.692Z,94681.34
2023-05-20T14:30:20.599Z,94680.72
2023-05-20T14:32:48.620Z,94684.66
2023-05-20T14:35:18.239Z,94688.66
2023-05-20T14:37:46.416Z,94689.50
2023-05-20T14:40:16.605Z,94688.78
2023-05-20T14:42:44.532Z,94694.63
2023-05-20T14:45:12.595Z,94696.22
2023-05-20T14:47:41.017Z,94691.06
2023-05-20T14:50:09.584Z,94694.94
2023-05-20T14:52:37.526Z,94700.72
2023-05-20T14:55:06.294Z,94694.00
2023-05-20T14:57:35.676Z,94689.16
2023-05-20T15:00:04.277Z,94688.59
2023-05-20T15:02:32.314Z,94695.81
2023-05-20T15:05:00.294Z,94691.47
2023-05-20T15:07:28.253Z,94690.72
2023-05-20T15:09:56.412Z,94690.69
2023-05-20T15:12:24.487Z,94692.28
2023-05-20T15:14:53.751Z,94690.28
2023-05-20T15:17:22.009Z,94683.84
2023-05-20T15:19:49.983Z,94690.72
2023-05-20T15:22:17.953Z,94686.72
2023-05-20T15:24:45.862Z,94695.56
2023-05-20T15:27:13.830Z,94699.69
2023-05-20T15:29:41.780Z,94704.63
2023-05-20T15:32:11.302Z,94702.69
2023-05-20T15:34:39.249Z,94712.78
2023-05-20T15:37:07.281Z,94715.72
2023-05-20T15:39:38.455Z,94722.19
2023-05-20T15:42:06.574Z,94717.28
2023-05-20T15:44:36.098Z,94731.41
2023-05-20T15:47:05.782Z,94726.75
2023-05-20T15:49:35.174Z,94730.88
2023-05-20T15:52:04.218Z,94733.22
2023-05-20T15:54:32.857Z,94726.56
2023-05-20T15:57:01.106Z,94730.63
2023-05-20T15:59:29.078Z,94730.13
2023-05-20T16:01:57.066Z,94717.13
2023-05-20T16:04:25.210Z,94722.63
2023-05-20T16:06:54.647Z,94722.69
2023-05-20T16:09:22.671Z,94719.06
2023-05-20T16:11:50.676Z,94733.75
2023-05-20T16:14:18.591Z,94730.63
2023-05-20T16:16:46.658Z,94733.84
2023-05-20T16:19:14.724Z,94722.03
2023-05-20T16:21:42.721Z,94731.75
2023-05-20T16:24:12.477Z,94725.91
2023-05-20T16:26:40.544Z,94722.19
2023-05-20T16:29:08.542Z,94731.69
2023-05-20T16:31:36.553Z,94736.91
2023-05-20T16:34:04.980Z,94723.75
2023-05-20T16:36:32.937Z,94731.69
2023-05-20T16:39:01.043Z,94717.56
2023-05-20T16:41:30.738Z,94722.00
2023-05-20T16:43:58.690Z,94717.16
2023-05-20T16:46:26.646Z,94715.81
2023-05-20T16:48:54.593Z,94708.66
2023-05-20T16:51:22.754Z,94710.16
2023-05-20T16:53:50.657Z,94705.78
2023-05-20T16:56:18.626Z,94700.28
2023-05-20T16:58:48.526Z,94707.34
2023-05-20T17:01:17.428Z,94711.38
2023-05-20T17:03:45.456Z,94706.91
2023-05-20T17:06:13.620Z,94709.47
2023-05-20T17:08:41.665Z,94711.63
2023-05-20T17:11:09.594Z,94723.53
2023-05-20T17:13:37.585Z,94723.72
2023-05-20T17:16:09.725Z,94727.66
2023-05-20T17:18:38.034Z,94712.34
2023-05-20T17:21:06.382Z,94733.72
2023-05-20T17:23:34.362Z,94731.31
2023-05-20T17:26:02.378Z,94733.94
2023-05-20T17:28:30.715Z,94741.97
2023-05-20T17:30:58.762Z,94733.88
2023-05-20T17:33:28.095Z,94744.63
2023-05-20T17:35:56.057Z,94743.09
2023-05-20T17:38:26.264Z,94744.78
2023-05-20T17:40:54.822Z,94749.59
2023-05-20T17:43:25.144Z,94751.72
2023-05-20T17:45:53.349Z,94752.72
2023-05-20T17:48:21.388Z,94746.66
2023-05-20T17:50:50.838Z,94748.53
2023-05-20T17:53:21.096Z,94758.69
2023-05-20T17:55:49.931Z,94767.19
2023-05-20T17:58:17.995Z,94753.25
2023-05-20T18:00:45.963Z,94759.84
2023-05-20T18:03:14.199Z,94759.34
2023-05-20T18:05:42.404Z,94767.28
2023-05-20T18:08:11.778Z,94762.78
2023-05-20T18:10:40.059Z,94766.50
2023-05-20T18:13:08.367Z,94764.66
2023-05-20T18:15:36.334Z,94764.16
2023-05-20T18:18:04.438Z,94766.28
2023-05-20T18:20:32.465Z,94771.59
2023-05-20T18:23:00.498Z,94767.34
2023-05-20T18:25:29.897Z,94772.31
2023-05-20T18:27:57.856Z,94772.63
2023-05-20T18:30:26.158Z,94765.50
2023-05-20T18:32:54.414Z,94774.22
2023-05-20T18:35:22.626Z,94769.75
2023-05-20T18:37:51.464Z,94777.66
2023-05-20T18:40:20.694Z,94775.00
2023-05-20T18:42:50.060Z,94778.97
2023-05-20T18:45:18.267Z,94779.47
2023-05-20T18:47:46.291Z,94785.81
2023-05-20T18:50:14.320Z,94787.41
2023-05-20T18:52:42.252Z,94786.63
2023-05-20T18:55:10.512Z,94777.94
2023-05-20T18:57:39.048Z,94768.47
2023-05-20T19:00:12.296Z,94771.34
2023-05-20T19:02:40.776Z,94772.16
2023-05-20T19:05:10.637Z,94776.63
2023-05-20T19:07:38.882Z,94789.00
2023-05-20T19:10:08.019Z,94776.34
2023-05-20T19:12:36.393Z,94773.44
2023-05-20T19:15:05.177Z,94772.44
2023-05-20T19:17:34.744Z,94775.31
2023-05-20T19:20:03.137Z,94775.84
2023-05-20T19:22:31.110Z,94782.69
2023-05-20T19:24:59.155Z,94777.44
2023-05-20T19:27:27.189Z,94782.13
2023-05-20T19:29:55.226Z,94781.09
2023-05-20T19:32:23.275Z,94781.59
2023-05-20T19:34:52.652Z,94788.13
2023-05-20T19:37:22.898Z,94791.09
2023-05-20T19:39:51.224Z,94783.16
2023-05-20T19:42:19.236Z,94787.94
2023-05-20T19:44:47.448Z,94785.31
2023-05-20T19:47:15.768Z,94776.88
2023-05-20T19:49:43.691Z,94782.09
2023-05-20T19:52:13.016Z,94777.41
2023-05-20T19:54:42.965Z,94785.81
2023-05-20T19:57:11.324Z,94786.34
2023-05-20T19:59:39.224Z,94778.91
2023-05-20T20:02:07.828Z,94780.50
2023-05-20T20:04:36.191Z,94773.66
2023-05-20T20:07:04.250Z,94771.03
2023-05-20T20:09:33.531Z,94768.66
2023-05-20T20:12:02.722Z,94768.91
2023-05-20T20:14:30.906Z,94766.81
2023-05-20T20:16:59.791Z,94770.50
2023-05-20T20:19:28.578Z,94777.88
2023-05-20T20:21:58.210Z,94784.72
2023-05-20T20:24:26.796Z,94777.88
2023-05-20T20:26:56.980Z,94781.56
2023-05-20T20:29:25.162Z,94785.75
2023-05-20T20:31:53.273Z,94784.97
2023-05-20T20:34:22.067Z,94783.13
2023-05-20T20:36:51.300Z,94793.38
2023-05-20T20:39:20.010Z,94789.97
2023-05-20T20:41:50.529Z,94791.53
2023-05-20T20:44:22.530Z,94789.97
2023-05-20T20:46:51.621Z,94786.81
2023-05-20T20:49:20.245Z,94783.13
2023-05-20T20:51:48.760Z,94786.03
2023-05-20T20:54:17.001Z,94781.56
2023-05-20T20:56:47.224Z,94783.66
2023-05-20T20:59:15.806Z,94778.66
2023-05-20T21:01:45.708Z,94772.59
2023-05-20T21:04:14.531Z,94767.34
2023-05-20T21:06:45.928Z,94781.56
2023-05-20T21:09:14.066Z,94781.56
2023-05-20T21:11:43.013Z,94781.03
2023-05-20T21:14:11.149Z,94774.97
2023-05-20T21:16:39.598Z,94777.88
2023-05-20T21:19:09.054Z,94772.59
2023-05-20T21:21:37.071Z,94771.03
2023-05-20T21:24:05.237Z,94771.03
2023-05-20T21:26:33.135Z,94773.13
2023-05-20T21:29:01.079Z,94779.69
2023-05-20T21:31:29.077Z,94778.34
2023-05-20T21:33:57.079Z,94782.94
2023-05-20T21:36:26.385Z,94772.41
2023-05-20T21:38:54.304Z,94781.91
2023-05-20T21:41:23.491Z,94773.25
2023-05-20T21:43:51.600Z,94778.53
2023-05-20T21:46:19.545Z,94770.41
2023-05-20T21:48:47.617Z,94773.03
2023-05-20T21:51:15.753Z,94769.91
2023-05-20T21:53:45.253Z,94773.88
2023-05-20T21:56:13.186Z,94772.03
2023-05-20T21:58:41.876Z,94772.28
2023-05-20T22:01:10.244Z,94773.00
2023-05-20T22:03:39.967Z,94771.88
2023-05-20T22:06:08.239Z,94761.88
2023-05-20T22:08:36.204Z,94764.50
2023-05-20T22:11:07.284Z,94764.50
2023-05-20T22:13:36.304Z,94762.94
2023-05-20T22:16:05.121Z,94754.53
2023-05-20T22:18:33.324Z,94761.88
2023-05-20T22:21:01.408Z,94753.47
2023-05-20T22:23:29.916Z,94755.59
2023-05-20T22:25:58.216Z,94750.84
2023-05-20T22:28:27.638Z,94754.78
2023-05-20T22:30:55.874Z,94750.31
2023-05-20T22:33:24.425Z,94744.91
2023-05-20T22:35:53.530Z,94743.41
2023-05-20T22:38:22.011Z,94739.50
2023-05-20T22:40:49.933Z,94737.41
2023-05-20T22:43:17.915Z,94738.19
2023-05-20T22:45:47.261Z,94732.94
2023-05-20T22:48:15.369Z,94734.00
2023-05-20T22:50:43.293Z,94737.19
2023-05-20T22:53:11.195Z,94741.91
2023-05-20T22:55:39.654Z,94733.50
2023-05-20T22:58:08.446Z,94728.25
2023-05-20T23:00:36.444Z,94727.72
2023-05-20T23:03:06.312Z,94729.81
2023-05-20T23:05:34.436Z,94727.19
2023-05-20T23:08:02.528Z,94728.25
2023-05-20T23:10:30.631Z,94730.34
2023-05-20T23:12:58.669Z,94734.28
2023-05-20T23:15:27.701Z,94726.09
2023-05-20T23:17:55.815Z,94715.38
2023-05-20T23:20:25.733Z,94724.28
2023-05-20T23:22:53.712Z,94725.09
2023-05-20T23:25:22.017Z,94726.66
2023-05-20T23:27:50.031Z,94726.38
2023-05-20T23:30:18.022Z,94722.94
2023-05-20T23:32:46.447Z,94721.34
2023-05-20T23:35:14.415Z,94723.13
2023-05-20T23:37:43.741Z,94718.19
2023-05-20T23:40:12.284Z,94718.47
2023-05-20T23:42:40.689Z,94712.94
2023-05-20T23:45:09.500Z,94713.75
2023-05-20T23:47:37.970Z,94719.78
2023-05-20T23:50:06.555Z,94717.66
2023-05-20T23:52:34.515Z,94722.91
2023-05-20T23:55:03.827Z,94719.22
2023-05-20T23:57:31.786Z,94721.81
2023-05-20T23:59:59.764Z,94720.75
